sensor_id;sensor_type;location;lat;lon;timestamp;pressure;altitude;pressure_sealevel;temperature;humidity
60337;BME280;46978;50.288;28.624;2023-02-08T00:00:51;101563.86;;;-11.85;97.09
60337;BME280;46978;50.288;28.624;2023-02-08T00:01:53;101562.78;;;-11.87;97.06
60337;BME280;46978;50.288;28.624;2023-02-08T00:02:55;101572.63;;;-11.88;97.04
60337;BME280;46978;50.288;28.624;2023-02-08T00:03:56;101568.38;;;-11.90;96.99
60337;BME280;46978;50.288;28.624;2023-02-08T00:04:58;101570.72;;;-11.91;97.17
60337;BME280;46978;50.288;28.624;2023-02-08T00:06:00;101571.75;;;-11.89;97.34
60337;BME280;46978;50.288;28.624;2023-02-08T00:07:01;101569.25;;;-11.89;97.42
60337;BME280;46978;50.288;28.624;2023-02-08T00:08:04;101568.21;;;-11.91;97.42
60337;BME280;46978;50.288;28.624;2023-02-08T00:09:05;101568.21;;;-11.91;97.42
60337;BME280;46978;50.288;28.624;2023-02-08T00:10:07;101568.96;;;-11.92;97.46
60337;BME280;46978;50.288;28.624;2023-02-08T00:11:10;101565.87;;;-11.90;97.83
60337;BME280;46978;50.288;28.624;2023-02-08T00:12:11;101568.70;;;-11.86;98.35
60337;BME280;46978;50.288;28.624;2023-02-08T00:13:13;101567.95;;;-11.85;98.35
60337;BME280;46978;50.288;28.624;2023-02-08T00:14:15;101570.30;;;-11.87;98.17
60337;BME280;46978;50.288;28.624;2023-02-08T00:15:17;101577.80;;;-11.87;97.85
60337;BME280;46978;50.288;28.624;2023-02-08T00:16:19;101578.39;;;-11.90;97.55
60337;BME280;46978;50.288;28.624;2023-02-08T00:17:20;101577.31;;;-11.92;97.66
60337;BME280;46978;50.288;28.624;2023-02-08T00:18:22;101572.31;;;-11.92;97.67
60337;BME280;46978;50.288;28.624;2023-02-08T00:19:24;101573.97;;;-11.92;97.54
60337;BME280;46978;50.288;28.624;2023-02-08T00:20:26;101580.59;;;-11.93;97.49
60337;BME280;46978;50.288;28.624;2023-02-08T00:21:28;101571.30;;;-11.94;97.50
60337;BME280;46978;50.288;28.624;2023-02-08T00:22:30;101578.81;;;-11.94;97.60
60337;BME280;46978;50.288;28.624;2023-02-08T00:23:32;101574.68;;;-11.93;97.76
60337;BME280;46978;50.288;28.624;2023-02-08T00:24:33;101572.18;;;-11.93;97.94
60337;BME280;46978;50.288;28.624;2023-02-08T00:25:35;101573.09;;;-11.93;98.08
60337;BME280;46978;50.288;28.624;2023-02-08T00:26:37;101574.81;;;-11.92;98.17
60337;BME280;46978;50.288;28.624;2023-02-08T00:27:39;101573.97;;;-11.92;98.16
60337;BME280;46978;50.288;28.624;2023-02-08T00:28:40;101575.42;;;-11.94;97.98
60337;BME280;46978;50.288;28.624;2023-02-08T00:29:42;101578.81;;;-11.94;98.05
60337;BME280;46978;50.288;28.624;2023-02-08T00:30:44;101578.64;;;-11.95;97.95
60337;BME280;46978;50.288;28.624;2023-02-08T00:31:46;101583.48;;;-11.97;97.78
60337;BME280;46978;50.288;28.624;2023-02-08T00:32:48;101585.11;;;-11.97;97.87
60337;BME280;46978;50.288;28.624;2023-02-08T00:33:50;101586.54;;;-11.99;97.75
60337;BME280;46978;50.288;28.624;2023-02-08T00:34:51;101587.29;;;-12.00;97.63
60337;BME280;46978;50.288;28.624;2023-02-08T00:36:01;101589.46;;;-12.03;97.48
60337;BME280;46978;50.288;28.624;2023-02-08T00:37:04;101591.63;;;-12.06;97.24
60337;BME280;46978;50.288;28.624;2023-02-08T00:38:05;101589.52;;;-12.11;97.16
60337;BME280;46978;50.288;28.624;2023-02-08T00:39:07;101590.06;;;-12.13;97.29
60337;BME280;46978;50.288;28.624;2023-02-08T00:40:10;101588.30;;;-12.14;97.28
60337;BME280;46978;50.288;28.624;2023-02-08T00:41:11;101589.73;;;-12.16;97.33
60337;BME280;46978;50.288;28.624;2023-02-08T00:42:13;101594.41;;;-12.19;97.49
60337;BME280;46978;50.288;28.624;2023-02-08T00:43:15;101590.86;;;-12.21;97.62
60337;BME280;46978;50.288;28.624;2023-02-08T00:44:16;101591.41;;;-12.24;97.69
60337;BME280;46978;50.288;28.624;2023-02-08T00:45:18;101597.86;;;-12.26;97.63
60337;BME280;46978;50.288;28.624;2023-02-08T00:46:20;101596.82;;;-12.28;97.51
60337;BME280;46978;50.288;28.624;2023-02-08T00:47:22;101593.98;;;-12.31;97.42
60337;BME280;46978;50.288;28.624;2023-02-08T00:48:25;101603.08;;;-12.32;97.30
60337;BME280;46978;50.288;28.624;2023-02-08T00:49:27;101597.91;;;-12.33;97.49
60337;BME280;46978;50.288;28.624;2023-02-08T00:50:29;101595.98;;;-12.36;97.51
60337;BME280;46978;50.288;28.624;2023-02-08T00:51:31;101602.41;;;-12.38;97.45
60337;BME280;46978;50.288;28.624;2023-02-08T00:52:33;101596.20;;;-12.41;97.34
60337;BME280;46978;50.288;28.624;2023-02-08T00:53:36;101601.91;;;-12.42;97.37
60337;BME280;46978;50.288;28.624;2023-02-08T00:54:38;101602.48;;;-12.45;97.50
60337;BME280;46978;50.288;28.624;2023-02-08T00:55:40;101605.70;;;-12.46;97.44
60337;BME280;46978;50.288;28.624;2023-02-08T00:56:42;101603.03;;;-12.48;97.51
60337;BME280;46978;50.288;28.624;2023-02-08T00:57:44;101605.53;;;-12.48;97.79
60337;BME280;46978;50.288;28.624;2023-02-08T00:58:45;101600.53;;;-12.48;97.98
60337;BME280;46978;50.288;28.624;2023-02-08T00:59:47;101604.66;;;-12.48;98.10
60337;BME280;46978;50.288;28.624;2023-02-08T01:00:50;101602.86;;;-12.49;98.05
60337;BME280;46978;50.288;28.624;2023-02-08T01:01:52;101601.07;;;-12.50;97.93
60337;BME280;46978;50.288;28.624;2023-02-08T01:02:53;101603.41;;;-12.52;97.76
60337;BME280;46978;50.288;28.624;2023-02-08T01:03:55;101601.65;;;-12.53;97.58
60337;BME280;46978;50.288;28.624;2023-02-08T01:04:57;101598.07;;;-12.55;97.48
60337;BME280;46978;50.288;28.624;2023-02-08T01:06:00;101604.52;;;-12.57;97.36
60337;BME280;46978;50.288;28.624;2023-02-08T01:07:03;101615.98;;;-12.59;97.32
60337;BME280;46978;50.288;28.624;2023-02-08T01:08:05;101611.52;;;-12.62;97.29
60337;BME280;46978;50.288;28.624;2023-02-08T01:09:06;101607.97;;;-12.64;97.30
60337;BME280;46978;50.288;28.624;2023-02-08T01:10:09;101611.89;;;-12.66;97.29
60337;BME280;46978;50.288;28.624;2023-02-08T01:11:14;101614.97;;;-12.68;97.28
60337;BME280;46978;50.288;28.624;2023-02-08T01:12:16;101614.62;;;-12.71;97.49
60337;BME280;46978;50.288;28.624;2023-02-08T01:13:18;101614.62;;;-12.71;97.49
60337;BME280;46978;50.288;28.624;2023-02-08T01:14:19;101622.84;;;-12.72;97.47
60337;BME280;46978;50.288;28.624;2023-02-08T01:15:21;101624.45;;;-12.73;97.68
60337;BME280;46978;50.288;28.624;2023-02-08T01:16:30;101619.29;;;-12.74;97.88
60337;BME280;46978;50.288;28.624;2023-02-08T01:17:28;101625.88;;;-12.75;98.07
60337;BME280;46978;50.288;28.624;2023-02-08T01:18:30;101630.00;;;-12.75;98.00
60337;BME280;46978;50.288;28.624;2023-02-08T01:19:31;101621.62;;;-12.76;98.11
60337;BME280;46978;50.288;28.624;2023-02-08T01:20:35;101630.70;;;-12.76;98.12
60337;BME280;46978;50.288;28.624;2023-02-08T01:21:40;101622.16;;;-12.78;98.10
60337;BME280;46978;50.288;28.624;2023-02-08T01:22:42;101622.70;;;-12.81;97.88
60337;BME280;46978;50.288;28.624;2023-02-08T01:23:44;101622.53;;;-12.83;97.82
60337;BME280;46978;50.288;28.624;2023-02-08T01:24:46;101626.48;;;-12.85;97.83
60337;BME280;46978;50.288;28.624;2023-02-08T01:25:47;101624.69;;;-12.86;97.84
60337;BME280;46978;50.288;28.624;2023-02-08T01:26:49;101627.02;;;-12.87;97.88
60337;BME280;46978;50.288;28.624;2023-02-08T01:27:51;101628.64;;;-12.88;97.90
60337;BME280;46978;50.288;28.624;2023-02-08T01:28:54;101627.59;;;-12.90;97.87
60337;BME280;46978;50.288;28.624;2023-02-08T01:29:55;101625.80;;;-12.91;97.96
60337;BME280;46978;50.288;28.624;2023-02-08T01:30:58;101623.47;;;-12.89;98.08
60337;BME280;46978;50.288;28.624;2023-02-08T01:31:59;101625.26;;;-12.88;98.23
60337;BME280;46978;50.288;28.624;2023-02-08T01:33:01;101621.14;;;-12.88;98.18
60337;BME280;46978;50.288;28.624;2023-02-08T01:34:04;101624.69;;;-12.86;98.44
60337;BME280;46978;50.288;28.624;2023-02-08T01:35:06;101627.19;;;-12.86;98.38
60337;BME280;46978;50.288;28.624;2023-02-08T01:36:10;101633.09;;;-12.85;98.37
60337;BME280;46978;50.288;28.624;2023-02-08T01:37:12;101640.94;;;-12.82;99.11
60337;BME280;46978;50.288;28.624;2023-02-08T01:38:14;101641.81;;;-12.82;98.98
60337;BME280;46978;50.288;28.624;2023-02-08T01:39:15;101638.61;;;-12.81;98.91
60337;BME280;46978;50.288;28.624;2023-02-08T01:40:17;101635.94;;;-12.82;98.79
60337;BME280;46978;50.288;28.624;2023-02-08T01:41:22;101640.94;;;-12.82;98.91
60337;BME280;46978;50.288;28.624;2023-02-08T01:42:24;101635.94;;;-12.82;98.83
60337;BME280;46978;50.288;28.624;2023-02-08T01:43:28;101641.11;;;-12.81;98.96
60337;BME280;46978;50.288;28.624;2023-02-08T01:46:09;101647.67;;;-12.74;99.87
60337;BME280;46978;50.288;28.624;2023-02-08T01:47:11;101645.17;;;-12.74;99.48
60337;BME280;46978;50.288;28.624;2023-02-08T01:48:17;101645.70;;;-12.76;99.12
60337;BME280;46978;50.288;28.624;2023-02-08T01:49:27;101645.70;;;-12.76;98.81
60337;BME280;46978;50.288;28.624;2023-02-08T01:50:33;101651.98;;;-12.80;98.45
60337;BME280;46978;50.288;28.624;2023-02-08T01:51:38;101649.85;;;-12.84;98.08
60337;BME280;46978;50.288;28.624;2023-02-08T01:52:40;101648.80;;;-12.86;97.85
60337;BME280;46978;50.288;28.624;2023-02-08T01:53:44;101654.17;;;-12.90;97.57
60337;BME280;46978;50.288;28.624;2023-02-08T01:54:53;101654.73;;;-12.93;97.39
60337;BME280;46978;50.288;28.624;2023-02-08T01:55:58;101659.39;;;-12.96;97.20
60337;BME280;46978;50.288;28.624;2023-02-08T01:57:00;101660.80;;;-12.98;97.06
60337;BME280;46978;50.288;28.624;2023-02-08T01:58:05;101669.05;;;-12.99;97.19
60337;BME280;46978;50.288;28.624;2023-02-08T01:59:16;101667.95;;;-13.01;97.17
60337;BME280;46978;50.288;28.624;2023-02-08T02:00:19;101671.20;;;-13.02;97.42
60337;BME280;46978;50.288;28.624;2023-02-08T02:01:24;101666.20;;;-13.02;97.46
60337;BME280;46978;50.288;28.624;2023-02-08T02:02:27;101676.91;;;-13.03;97.39
60337;BME280;46978;50.288;28.624;2023-02-08T02:03:29;101675.11;;;-13.04;97.50
60337;BME280;46978;50.288;28.624;2023-02-08T02:04:31;101679.40;;;-13.03;97.75
60337;BME280;46978;50.288;28.624;2023-02-08T02:05:40;101679.40;;;-13.03;97.75
60337;BME280;46978;50.288;28.624;2023-02-08T02:06:45;101675.45;;;-13.01;98.07
60337;BME280;46978;50.288;28.624;2023-02-08T02:07:48;101673.70;;;-13.02;98.11
60337;BME280;46978;50.288;28.624;2023-02-08T02:08:55;101671.38;;;-13.01;98.34
60337;BME280;46978;50.288;28.624;2023-02-08T02:10:06;101677.25;;;-13.00;98.39
60337;BME280;46978;50.288;28.624;2023-02-08T02:11:04;101676.55;;;-12.99;98.61
60337;BME280;46978;50.288;28.624;2023-02-08T02:12:07;101679.92;;;-12.99;98.41
60337;BME280;46978;50.288;28.624;2023-02-08T02:13:12;101679.92;;;-12.99;98.27
60337;BME280;46978;50.288;28.624;2023-02-08T02:14:15;101678.13;;;-13.00;98.08
60337;BME280;46978;50.288;28.624;2023-02-08T02:15:17;101683.12;;;-13.00;98.09
60337;BME280;46978;50.288;28.624;2023-02-08T02:16:19;101684.91;;;-12.99;98.08
60337;BME280;46978;50.288;28.624;2023-02-08T02:17:21;101684.21;;;-12.97;98.12
60337;BME280;46978;50.288;28.624;2023-02-08T02:18:28;101682.23;;;-12.93;98.47
60337;BME280;46978;50.288;28.624;2023-02-08T02:26:35;101695.95;;;-12.89;98.85
60337;BME280;46978;50.288;28.624;2023-02-08T02:30:45;101704.72;;;-12.93;98.42
60337;BME280;46978;50.288;28.624;2023-02-08T02:38:19;101705.41;;;-12.87;99.06
60337;BME280;46978;50.288;28.624;2023-02-08T02:39:53;101713.80;;;-12.86;98.93
60337;BME280;46978;50.288;28.624;2023-02-08T02:43:36;101718.62;;;-12.88;98.92
60337;BME280;46978;50.288;28.624;2023-02-08T02:45:48;101719.67;;;-12.86;99.20
60337;BME280;46978;50.288;28.624;2023-02-08T02:46:52;101717.17;;;-12.86;99.17
60337;BME280;46978;50.288;28.624;2023-02-08T02:48:01;101723.09;;;-12.85;99.35
60337;BME280;46978;50.288;28.624;2023-02-08T02:49:22;101718.97;;;-12.85;99.37
60337;BME280;46978;50.288;28.624;2023-02-08T02:50:29;101723.97;;;-12.85;99.27
60337;BME280;46978;50.288;28.624;2023-02-08T02:51:37;101718.62;;;-12.88;99.13
60337;BME280;46978;50.288;28.624;2023-02-08T02:52:41;101723.97;;;-12.85;99.60
60337;BME280;46978;50.288;28.624;2023-02-08T02:53:58;101722.17;;;-12.86;99.59
60337;BME280;46978;50.288;28.624;2023-02-08T02:55:04;101732.34;;;-12.84;99.38
60337;BME280;46978;50.288;28.624;2023-02-08T02:56:17;101724.67;;;-12.86;99.47
60337;BME280;46978;50.288;28.624;2023-02-08T02:57:14;101729.67;;;-12.86;99.35
60337;BME280;46978;50.288;28.624;2023-02-08T02:58:18;101729.50;;;-12.87;99.17
60337;BME280;46978;50.288;28.624;2023-02-08T02:59:22;101728.44;;;-12.89;98.98
60337;BME280;46978;50.288;28.624;2023-02-08T03:00:25;101727.39;;;-12.91;98.78
60337;BME280;46978;50.288;28.624;2023-02-08T03:01:28;101729.89;;;-12.91;98.66
60337;BME280;46978;50.288;28.624;2023-02-08T03:02:30;101733.97;;;-12.92;98.78
60337;BME280;46978;50.288;28.624;2023-02-08T03:03:33;101733.97;;;-12.92;98.78
60337;BME280;46978;50.288;28.624;2023-02-08T03:05:40;101743.97;;;-12.92;98.82
60337;BME280;46978;50.288;28.624;2023-02-08T03:08:23;101748.09;;;-12.92;98.90
60337;BME280;46978;50.288;28.624;2023-02-08T03:14:28;101754.36;;;-12.96;98.35
60337;BME280;46978;50.288;28.624;2023-02-08T03:17:07;101749.02;;;-12.99;98.52
60337;BME280;46978;50.288;28.624;2023-02-08T03:24:30;101760.42;;;-13.01;98.70
60337;BME280;46978;50.288;28.624;2023-02-08T03:25:39;101754.55;;;-13.02;98.71
60337;BME280;46978;50.288;28.624;2023-02-08T03:27:00;101766.16;;;-13.02;98.30
60337;BME280;46978;50.288;28.624;2023-02-08T03:28:22;101766.69;;;-13.05;98.06
60337;BME280;46978;50.288;28.624;2023-02-08T03:31:13;101768.48;;;-13.04;98.78
60337;BME280;46978;50.288;28.624;2023-02-08T03:32:21;101769.36;;;-13.03;98.79
60337;BME280;46978;50.288;28.624;2023-02-08T03:33:40;101773.30;;;-13.05;98.54
60337;BME280;46978;50.288;28.624;2023-02-08T03:34:53;101766.52;;;-13.06;98.40
60337;BME280;46978;50.288;28.624;2023-02-08T03:37:08;101771.52;;;-13.06;98.66
60337;BME280;46978;50.288;28.624;2023-02-08T03:38:22;101765.81;;;-13.05;98.92
60337;BME280;46978;50.288;28.624;2023-02-08T03:39:26;101772.56;;;-13.04;99.00
60337;BME280;46978;50.288;28.624;2023-02-08T03:40:40;101772.39;;;-13.06;98.81
60337;BME280;46978;50.288;28.624;2023-02-08T03:41:39;101779.19;;;-13.05;98.92
60337;BME280;46978;50.288;28.624;2023-02-08T03:42:44;101778.12;;;-13.07;98.83
60337;BME280;46978;50.288;28.624;2023-02-08T03:44:32;101775.45;;;-13.08;98.70
60337;BME280;46978;50.288;28.624;2023-02-08T03:45:00;101780.27;;;-13.10;98.82
60337;BME280;46978;50.288;28.624;2023-02-08T03:46:20;101781.86;;;-13.10;98.79
60337;BME280;46978;50.288;28.624;2023-02-08T03:47:28;101778.48;;;-13.11;98.64
60337;BME280;46978;50.288;28.624;2023-02-08T03:48:33;101781.69;;;-13.12;98.60
60337;BME280;46978;50.288;28.624;2023-02-08T03:49:38;101780.80;;;-13.12;98.61
60337;BME280;46978;50.288;28.624;2023-02-08T03:50:40;101781.69;;;-13.12;98.49
60337;BME280;46978;50.288;28.624;2023-02-08T03:51:45;101784.92;;;-13.13;98.45
60337;BME280;46978;50.288;28.624;2023-02-08T03:52:48;101777.25;;;-13.14;98.42
60337;BME280;46978;50.288;28.624;2023-02-08T03:53:52;101783.83;;;-13.15;98.39
60337;BME280;46978;50.288;28.624;2023-02-08T03:55:15;101782.06;;;-13.16;98.31
60337;BME280;46978;50.288;28.624;2023-02-08T03:56:25;101786.89;;;-13.18;98.30
60337;BME280;46978;50.288;28.624;2023-02-08T03:57:28;101790.27;;;-13.17;98.38
60337;BME280;46978;50.288;28.624;2023-02-08T03:58:43;101791.00;;;-13.18;98.30
60337;BME280;46978;50.288;28.624;2023-02-08T03:59:48;101792.94;;;-13.16;98.65
60337;BME280;46978;50.288;28.624;2023-02-08T04:00:53;101795.44;;;-13.16;98.82
60337;BME280;46978;50.288;28.624;2023-02-08T04:02:00;101798.82;;;-13.15;98.50
60337;BME280;46978;50.288;28.624;2023-02-08T04:03:09;101803.11;;;-13.14;98.35
60337;BME280;46978;50.288;28.624;2023-02-08T04:04:13;101807.94;;;-13.16;98.13
60337;BME280;46978;50.288;28.624;2023-02-08T04:05:16;101802.94;;;-13.16;97.95
60337;BME280;46978;50.288;28.624;2023-02-08T04:06:19;101808.67;;;-13.17;97.77
60337;BME280;46978;50.288;28.624;2023-02-08T04:07:21;101810.25;;;-13.17;97.63
60337;BME280;46978;50.288;28.624;2023-02-08T04:08:24;101811.88;;;-13.18;97.49
60337;BME280;46978;50.288;28.624;2023-02-08T04:09:26;101810.08;;;-13.19;97.54
60337;BME280;46978;50.288;28.624;2023-02-08T04:10:28;101810.81;;;-13.20;97.42
60337;BME280;46978;50.288;28.624;2023-02-08T04:11:30;101809.02;;;-13.21;97.28
60337;BME280;46978;50.288;28.624;2023-02-08T04:12:31;101810.64;;;-13.21;97.08
60337;BME280;46978;50.288;28.624;2023-02-08T04:13:33;101808.48;;;-13.25;96.83
60337;BME280;46978;50.288;28.624;2023-02-08T04:14:34;101808.31;;;-13.27;96.70
60337;BME280;46978;50.288;28.624;2023-02-08T04:15:36;101810.63;;;-13.28;96.59
60337;BME280;46978;50.288;28.624;2023-02-08T04:16:38;101808.48;;;-13.32;96.52
60337;BME280;46978;50.288;28.624;2023-02-08T04:17:39;101820.63;;;-13.28;96.52
60337;BME280;46978;50.288;28.624;2023-02-08T04:18:41;101820.63;;;-13.28;96.47
60337;BME280;46978;50.288;28.624;2023-02-08T04:19:43;101827.94;;;-13.30;96.40
60337;BME280;46978;50.288;28.624;2023-02-08T04:20:44;101830.44;;;-13.30;96.36
60337;BME280;46978;50.288;28.624;2023-02-08T04:21:46;101835.95;;;-13.32;96.41
60337;BME280;46978;50.288;28.624;2023-02-08T04:22:48;101837.61;;;-13.33;96.30
60337;BME280;46978;50.288;28.624;2023-02-08T04:23:50;101839.22;;;-13.33;96.21
60337;BME280;46978;50.288;28.624;2023-02-08T04:24:51;101841.55;;;-13.35;96.16
60337;BME280;46978;50.288;28.624;2023-02-08T04:25:53;101841.19;;;-13.38;95.95
60337;BME280;46978;50.288;28.624;2023-02-08T04:26:55;101848.32;;;-13.41;95.79
60337;BME280;46978;50.288;28.624;2023-02-08T04:27:56;101845.46;;;-13.44;95.55
60337;BME280;46978;50.288;28.624;2023-02-08T04:28:58;101842.61;;;-13.47;95.36
60337;BME280;46978;50.288;28.624;2023-02-08T04:30:00;101839.02;;;-13.49;95.31
60337;BME280;46978;50.288;28.624;2023-02-08T04:31:01;101834.02;;;-13.49;95.33
60337;BME280;46978;50.288;28.624;2023-02-08T04:32:03;101841.52;;;-13.49;95.35
60337;BME280;46978;50.288;28.624;2023-02-08T04:33:05;101840.45;;;-13.51;95.52
60337;BME280;46978;50.288;28.624;2023-02-08T04:34:07;101837.07;;;-13.52;95.58
60337;BME280;46978;50.288;28.624;2023-02-08T04:35:08;101845.08;;;-13.55;95.56
60337;BME280;46978;50.288;28.624;2023-02-08T04:36:10;101840.09;;;-13.55;95.67
60337;BME280;46978;50.288;28.624;2023-02-08T04:37:12;101837.59;;;-13.55;95.89
60337;BME280;46978;50.288;28.624;2023-02-08T04:38:14;101837.59;;;-13.55;95.84
60337;BME280;46978;50.288;28.624;2023-02-08T04:39:15;101838.30;;;-13.56;95.68
60337;BME280;46978;50.288;28.624;2023-02-08T04:40:17;101837.23;;;-13.58;95.56
60337;BME280;46978;50.288;28.624;2023-02-08T04:41:19;101838.85;;;-13.58;95.41
60337;BME280;46978;50.288;28.624;2023-02-08T04:42:21;101841.16;;;-13.60;95.29
60337;BME280;46978;50.288;28.624;2023-02-08T04:43:22;101842.56;;;-13.62;95.18
60337;BME280;46978;50.288;28.624;2023-02-08T04:44:24;101845.98;;;-13.61;95.05
60337;BME280;46978;50.288;28.624;2023-02-08T04:45:26;101850.79;;;-13.63;94.88
60337;BME280;46978;50.288;28.624;2023-02-08T04:46:28;101847.02;;;-13.66;94.55
60337;BME280;46978;50.288;28.624;2023-02-08T04:47:29;101858.26;;;-13.70;94.49
60337;BME280;46978;50.288;28.624;2023-02-08T04:48:31;101855.40;;;-13.73;94.65
60337;BME280;46978;50.288;28.624;2023-02-08T04:49:33;101856.09;;;-13.74;94.72
60337;BME280;46978;50.288;28.624;2023-02-08T04:50:34;101837.36;;;-13.85;94.80
60337;BME280;46978;50.288;28.624;2023-02-08T04:51:37;101858.41;;;-13.76;95.01
60337;BME280;46978;50.288;28.624;2023-02-08T04:52:38;101859.14;;;-13.77;94.88
60337;BME280;46978;50.288;28.624;2023-02-08T04:53:40;101858.96;;;-13.78;94.78
60337;BME280;46978;50.288;28.624;2023-02-08T04:54:42;101868.03;;;-13.79;94.69
60337;BME280;46978;50.288;28.624;2023-02-08T04:55:43;101868.03;;;-13.79;94.63
60337;BME280;46978;50.288;28.624;2023-02-08T04:56:45;101866.27;;;-13.80;94.53
60337;BME280;46978;50.288;28.624;2023-02-08T04:57:47;101870.34;;;-13.80;94.37
60337;BME280;46978;50.288;28.624;2023-02-08T04:58:48;101873.39;;;-13.83;94.18
60337;BME280;46978;50.288;28.624;2023-02-08T04:59:50;101868.41;;;-13.83;94.10
60337;BME280;46978;50.288;28.624;2023-02-08T05:00:51;101872.48;;;-13.83;94.10
60337;BME280;46978;50.288;28.624;2023-02-08T05:01:53;101864.81;;;-13.85;94.16
60337;BME280;46978;50.288;28.624;2023-02-08T05:02:56;101864.81;;;-13.85;94.13
60337;BME280;46978;50.288;28.624;2023-02-08T05:03:58;101863.05;;;-13.86;94.09
60337;BME280;46978;50.288;28.624;2023-02-08T05:05:00;101863.92;;;-13.85;94.05
60337;BME280;46978;50.288;28.624;2023-02-08T05:06:02;101865.54;;;-13.86;93.95
60337;BME280;46978;50.288;28.624;2023-02-08T05:07:04;101861.06;;;-13.89;93.82
60337;BME280;46978;50.288;28.624;2023-02-08T05:08:06;101870.86;;;-13.90;93.66
60337;BME280;46978;50.288;28.624;2023-02-08T05:09:08;101863.38;;;-13.90;93.55
60337;BME280;46978;50.288;28.624;2023-02-08T05:10:10;101864.81;;;-13.92;93.46
60337;BME280;46978;50.288;28.624;2023-02-08T05:11:21;101862.13;;;-13.94;93.40
60337;BME280;46978;50.288;28.624;2023-02-08T05:12:20;101867.82;;;-13.95;93.33
60337;BME280;46978;50.288;28.624;2023-02-08T05:13:22;101871.75;;;-13.97;93.27
60337;BME280;46978;50.288;28.624;2023-02-08T05:14:23;101874.94;;;-13.98;93.10
60337;BME280;46978;50.288;28.624;2023-02-08T05:15:25;101876.38;;;-14.00;93.07
60337;BME280;46978;50.288;28.624;2023-02-08T05:16:27;101872.96;;;-14.00;93.10
60337;BME280;46978;50.288;28.624;2023-02-08T05:17:29;101872.77;;;-14.02;93.09
60337;BME280;46978;50.288;28.624;2023-02-08T05:18:31;101856.70;;;-14.11;92.97
60337;BME280;46978;50.288;28.624;2023-02-08T05:19:33;101865.66;;;-14.06;92.84
60337;BME280;46978;50.288;28.624;2023-02-08T05:20:35;101871.86;;;-14.10;92.84
60337;BME280;46978;50.288;28.624;2023-02-08T05:21:36;101872.59;;;-14.11;92.86
60337;BME280;46978;50.288;28.624;2023-02-08T05:22:39;101866.50;;;-14.13;93.07
60337;BME280;46978;50.288;28.624;2023-02-08T05:23:41;101872.22;;;-14.14;93.34
60337;BME280;46978;50.288;28.624;2023-02-08T05:24:42;101868.81;;;-14.14;93.49
60337;BME280;46978;50.288;28.624;2023-02-08T05:25:44;101873.10;;;-14.13;93.52
60337;BME280;46978;50.288;28.624;2023-02-08T05:26:46;101870.09;;;-14.11;93.74
60337;BME280;46978;50.288;28.624;2023-02-08T05:27:47;101874.20;;;-14.04;94.31
60337;BME280;46978;50.288;28.624;2023-02-08T05:28:49;101874.20;;;-14.04;94.31
60337;BME280;46978;50.288;28.624;2023-02-08T05:29:51;101873.69;;;-14.01;94.33
60337;BME280;46978;50.288;28.624;2023-02-08T05:30:52;101878.87;;;-14.00;94.49
60337;BME280;46978;50.288;28.624;2023-02-08T05:31:54;101874.76;;;-13.99;94.31
60337;BME280;46978;50.288;28.624;2023-02-08T05:32:56;101878.68;;;-14.01;94.19
60337;BME280;46978;50.288;28.624;2023-02-08T05:33:57;101878.87;;;-14.00;94.13
60337;BME280;46978;50.288;28.624;2023-02-08T05:34:59;101876.38;;;-14.00;94.10
60337;BME280;46978;50.288;28.624;2023-02-08T05:36:01;101879.05;;;-13.98;94.12
60337;BME280;46978;50.288;28.624;2023-02-08T05:37:02;101878.31;;;-13.97;94.11
60337;BME280;46978;50.288;28.624;2023-02-08T05:38:04;101881.91;;;-13.95;94.09
60337;BME280;46978;50.288;28.624;2023-02-08T05:39:06;101883.49;;;-13.96;94.00
60337;BME280;46978;50.288;28.624;2023-02-08T05:40:09;101884.59;;;-13.94;94.02
60337;BME280;46978;50.288;28.624;2023-02-08T05:41:11;101882.97;;;-13.93;94.03
60337;BME280;46978;50.288;28.624;2023-02-08T05:42:13;101879.78;;;-13.92;94.06
60337;BME280;46978;50.288;28.624;2023-02-08T05:43:14;101884.95;;;-13.91;94.03
60337;BME280;46978;50.288;28.624;2023-02-08T05:44:16;101878.35;;;-13.90;94.04
60337;BME280;46978;50.288;28.624;2023-02-08T05:45:18;101888.70;;;-13.87;94.11
60337;BME280;46978;50.288;28.624;2023-02-08T05:46:20;101886.39;;;-13.85;94.14
60337;BME280;46978;50.288;28.624;2023-02-08T05:47:21;101883.38;;;-13.83;94.22
60337;BME280;46978;50.288;28.624;2023-02-08T05:48:23;101885.32;;;-13.80;94.26
60337;BME280;46978;50.288;28.624;2023-02-08T05:49:25;101886.42;;;-13.78;94.23
60337;BME280;46978;50.288;28.624;2023-02-08T05:50:27;101896.95;;;-13.74;94.90
60337;BME280;46978;50.288;28.624;2023-02-08T05:51:28;101896.95;;;-13.74;94.90
60337;BME280;46978;50.288;28.624;2023-02-08T05:52:30;101898.72;;;-13.73;94.73
60337;BME280;46978;50.288;28.624;2023-02-08T05:53:32;101903.01;;;-13.72;94.69
60337;BME280;46978;50.288;28.624;2023-02-08T05:54:34;101893.72;;;-13.73;94.46
60337;BME280;46978;50.288;28.624;2023-02-08T05:55:36;101903.89;;;-13.71;94.46
60337;BME280;46978;50.288;28.624;2023-02-08T05:56:38;101903.19;;;-13.70;94.30
60337;BME280;46978;50.288;28.624;2023-02-08T05:57:39;101899.81;;;-13.71;94.19
60337;BME280;46978;50.288;28.624;2023-02-08T05:58:41;101904.07;;;-13.69;93.92
60337;BME280;46978;50.288;28.624;2023-02-08T05:59:42;101906.39;;;-13.71;93.84
60337;BME280;46978;50.288;28.624;2023-02-08T06:00:44;101890.16;;;-13.75;93.69
60337;BME280;46978;50.288;28.624;2023-02-08T06:01:46;101904.07;;;-13.69;93.48
60337;BME280;46978;50.288;28.624;2023-02-08T06:02:47;101906.56;;;-13.69;93.32
60337;BME280;46978;50.288;28.624;2023-02-08T06:03:49;101904.07;;;-13.69;93.23